sensor_id;sensor_type;location;lat;lon;timestamp;P1;durP1;ratioP1;P2;durP2;ratioP2
28625;SDS011;18905;42.668;23.364;2024-02-26T00:00:06;16.83;;;8.23;;
28625;SDS011;18905;42.668;23.364;2024-02-26T00:02:35;15.73;;;8.98;;
28625;SDS011;18905;42.668;23.364;2024-02-26T00:05:05;13.95;;;7.63;;
28625;SDS011;18905;42.668;23.364;2024-02-26T00:07:32;14.98;;;7.15;;
28625;SDS011;18905;42.668;23.364;2024-02-26T00:09:57;11.07;;;7.65;;
28625;SDS011;18905;42.668;23.364;2024-02-26T00:12:22;13.27;;;7.18;;
28625;SDS011;18905;42.668;23.364;2024-02-26T00:14:48;11.10;;;6.70;;
28625;SDS011;18905;42.668;23.364;2024-02-26T00:17:14;15.73;;;6.22;;
28625;SDS011;18905;42.668;23.364;2024-02-26T00:19:40;15.02;;;7.80;;
28625;SDS011;18905;42.668;23.364;2024-02-26T00:22:06;15.77;;;8.27;;
28625;SDS011;18905;42.668;23.364;2024-02-26T00:24:31;15.13;;;7.93;;
28625;SDS011;18905;42.668;23.364;2024-02-26T00:26:57;14.90;;;8.75;;
28625;SDS011;18905;42.668;23.364;2024-02-26T00:29:22;15.82;;;9.13;;
28625;SDS011;18905;42.668;23.364;2024-02-26T00:31:48;16.33;;;9.40;;
28625;SDS011;18905;42.668;23.364;2024-02-26T00:34:14;16.60;;;8.52;;
28625;SDS011;18905;42.668;23.364;2024-02-26T00:36:39;11.65;;;7.55;;
28625;SDS011;18905;42.668;23.364;2024-02-26T00:39:04;17.13;;;8.40;;
28625;SDS011;18905;42.668;23.364;2024-02-26T00:41:30;16.40;;;7.80;;
28625;SDS011;18905;42.668;23.364;2024-02-26T00:43:55;14.55;;;8.40;;
28625;SDS011;18905;42.668;23.364;2024-02-26T00:46:20;12.55;;;7.50;;
28625;SDS011;18905;42.668;23.364;2024-02-26T00:48:46;15.15;;;7.68;;
28625;SDS011;18905;42.668;23.364;2024-02-26T00:51:11;16.70;;;8.85;;
28625;SDS011;18905;42.668;23.364;2024-02-26T00:53:37;14.20;;;8.32;;
28625;SDS011;18905;42.668;23.364;2024-02-26T00:56:02;10.90;;;7.45;;
28625;SDS011;18905;42.668;23.364;2024-02-26T00:58:28;11.50;;;7.47;;
28625;SDS011;18905;42.668;23.364;2024-02-26T01:00:53;12.05;;;7.47;;
28625;SDS011;18905;42.668;23.364;2024-02-26T01:03:19;13.93;;;7.03;;
28625;SDS011;18905;42.668;23.364;2024-02-26T01:05:44;14.73;;;7.85;;
28625;SDS011;18905;42.668;23.364;2024-02-26T01:08:10;14.15;;;7.32;;
28625;SDS011;18905;42.668;23.364;2024-02-26T01:10:35;12.88;;;8.43;;
28625;SDS011;18905;42.668;23.364;2024-02-26T01:13:01;16.30;;;7.88;;
28625;SDS011;18905;42.668;23.364;2024-02-26T01:15:26;18.05;;;8.23;;
28625;SDS011;18905;42.668;23.364;2024-02-26T01:17:52;10.20;;;6.53;;
28625;SDS011;18905;42.668;23.364;2024-02-26T01:20:18;17.23;;;7.93;;
28625;SDS011;18905;42.668;23.364;2024-02-26T01:22:43;13.20;;;8.02;;
28625;SDS011;18905;42.668;23.364;2024-02-26T01:25:09;10.90;;;6.65;;
28625;SDS011;18905;42.668;23.364;2024-02-26T01:27:35;11.90;;;7.55;;
28625;SDS011;18905;42.668;23.364;2024-02-26T01:30:04;12.63;;;7.30;;
28625;SDS011;18905;42.668;23.364;2024-02-26T01:32:32;9.68;;;6.63;;
28625;SDS011;18905;42.668;23.364;2024-02-26T01:34:57;15.40;;;7.88;;
28625;SDS011;18905;42.668;23.364;2024-02-26T01:37:23;15.32;;;8.32;;
28625;SDS011;18905;42.668;23.364;2024-02-26T01:39:48;15.07;;;8.15;;
28625;SDS011;18905;42.668;23.364;2024-02-26T01:42:14;18.73;;;7.93;;
28625;SDS011;18905;42.668;23.364;2024-02-26T01:44:39;14.82;;;8.25;;
28625;SDS011;18905;42.668;23.364;2024-02-26T01:47:09;18.33;;;9.40;;
28625;SDS011;18905;42.668;23.364;2024-02-26T01:49:37;16.60;;;9.63;;
28625;SDS011;18905;42.668;23.364;2024-02-26T01:52:04;15.13;;;8.48;;
28625;SDS011;18905;42.668;23.364;2024-02-26T01:54:31;14.23;;;8.57;;
28625;SDS011;18905;42.668;23.364;2024-02-26T01:56:57;16.55;;;8.35;;
28625;SDS011;18905;42.668;23.364;2024-02-26T01:59:23;21.23;;;8.13;;
28625;SDS011;18905;42.668;23.364;2024-02-26T02:01:51;13.45;;;8.07;;
28625;SDS011;18905;42.668;23.364;2024-02-26T02:04:20;17.48;;;8.70;;
28625;SDS011;18905;42.668;23.364;2024-02-26T02:06:48;16.98;;;8.43;;
28625;SDS011;18905;42.668;23.364;2024-02-26T02:09:13;15.90;;;8.27;;
28625;SDS011;18905;42.668;23.364;2024-02-26T02:11:39;14.90;;;8.23;;
28625;SDS011;18905;42.668;23.364;2024-02-26T02:14:04;13.52;;;7.78;;
28625;SDS011;18905;42.668;23.364;2024-02-26T02:16:31;14.07;;;8.57;;
28625;SDS011;18905;42.668;23.364;2024-02-26T02:18:57;17.33;;;9.35;;
28625;SDS011;18905;42.668;23.364;2024-02-26T02:21:25;17.05;;;9.32;;
28625;SDS011;18905;42.668;23.364;2024-02-26T02:23:50;15.07;;;8.25;;
28625;SDS011;18905;42.668;23.364;2024-02-26T02:26:16;17.35;;;10.95;;
28625;SDS011;18905;42.668;23.364;2024-02-26T02:28:42;20.20;;;10.38;;
28625;SDS011;18905;42.668;23.364;2024-02-26T02:31:08;20.48;;;11.40;;
28625;SDS011;18905;42.668;23.364;2024-02-26T02:33:34;24.55;;;12.63;;
28625;SDS011;18905;42.668;23.364;2024-02-26T02:36:00;24.83;;;11.98;;
28625;SDS011;18905;42.668;23.364;2024-02-26T02:38:25;20.58;;;12.27;;
28625;SDS011;18905;42.668;23.364;2024-02-26T02:40:54;22.45;;;13.30;;
28625;SDS011;18905;42.668;23.364;2024-02-26T02:43:19;25.83;;;13.10;;
28625;SDS011;18905;42.668;23.364;2024-02-26T02:45:45;25.45;;;12.63;;
28625;SDS011;18905;42.668;23.364;2024-02-26T02:48:13;24.80;;;12.98;;
28625;SDS011;18905;42.668;23.364;2024-02-26T02:50:38;23.88;;;13.20;;
28625;SDS011;18905;42.668;23.364;2024-02-26T02:53:04;18.83;;;11.25;;
28625;SDS011;18905;42.668;23.364;2024-02-26T02:55:30;19.95;;;11.18;;
28625;SDS011;18905;42.668;23.364;2024-02-26T02:57:55;17.27;;;10.93;;
28625;SDS011;18905;42.668;23.364;2024-02-26T03:00:20;21.20;;;10.90;;
28625;SDS011;18905;42.668;23.364;2024-02-26T03:02:48;21.85;;;11.27;;
28625;SDS011;18905;42.668;23.364;2024-02-26T03:05:14;27.00;;;10.88;;
28625;SDS011;18905;42.668;23.364;2024-02-26T03:07:39;20.10;;;11.45;;
28625;SDS011;18905;42.668;23.364;2024-02-26T03:10:05;21.98;;;11.05;;
28625;SDS011;18905;42.668;23.364;2024-02-26T03:12:30;23.88;;;12.05;;
28625;SDS011;18905;42.668;23.364;2024-02-26T03:14:56;21.95;;;11.23;;
28625;SDS011;18905;42.668;23.364;2024-02-26T03:17:22;22.60;;;11.70;;
28625;SDS011;18905;42.668;23.364;2024-02-26T03:19:49;24.02;;;11.88;;
28625;SDS011;18905;42.668;23.364;2024-02-26T03:22:18;22.30;;;11.68;;
28625;SDS011;18905;42.668;23.364;2024-02-26T03:24:44;25.92;;;12.05;;
28625;SDS011;18905;42.668;23.364;2024-02-26T03:27:09;23.52;;;11.55;;
28625;SDS011;18905;42.668;23.364;2024-02-26T03:29:35;20.70;;;11.77;;
28625;SDS011;18905;42.668;23.364;2024-02-26T03:32:02;26.40;;;11.18;;
28625;SDS011;18905;42.668;23.364;2024-02-26T03:34:27;25.27;;;11.35;;
28625;SDS011;18905;42.668;23.364;2024-02-26T03:36:53;21.80;;;11.13;;
28625;SDS011;18905;42.668;23.364;2024-02-26T03:39:19;20.45;;;11.25;;
28625;SDS011;18905;42.668;23.364;2024-02-26T03:41:44;20.40;;;11.10;;
28625;SDS011;18905;42.668;23.364;2024-02-26T03:44:09;23.10;;;10.85;;
28625;SDS011;18905;42.668;23.364;2024-02-26T03:46:35;20.20;;;11.43;;
28625;SDS011;18905;42.668;23.364;2024-02-26T03:49:00;20.85;;;12.27;;
28625;SDS011;18905;42.668;23.364;2024-02-26T03:51:25;30.42;;;15.07;;
28625;SDS011;18905;42.668;23.364;2024-02-26T03:53:51;22.60;;;11.48;;
28625;SDS011;18905;42.668;23.364;2024-02-26T03:56:17;30.60;;;15.40;;
28625;SDS011;18905;42.668;23.364;2024-02-26T03:58:42;34.22;;;17.38;;
28625;SDS011;18905;42.668;23.364;2024-02-26T04:01:08;39.47;;;19.80;;
28625;SDS011;18905;42.668;23.364;2024-02-26T04:03:33;40.97;;;20.95;;
28625;SDS011;18905;42.668;23.364;2024-02-26T04:05:59;42.08;;;19.80;;
28625;SDS011;18905;42.668;23.364;2024-02-26T04:08:24;42.42;;;19.58;;
28625;SDS011;18905;42.668;23.364;2024-02-26T04:10:50;34.72;;;17.95;;
28625;SDS011;18905;42.668;23.364;2024-02-26T04:13:16;32.53;;;17.45;;
28625;SDS011;18905;42.668;23.364;2024-02-26T04:15:42;42.22;;;18.17;;
28625;SDS011;18905;42.668;23.364;2024-02-26T04:18:07;38.63;;;18.17;;
28625;SDS011;18905;42.668;23.364;2024-02-26T04:20:33;36.60;;;19.23;;
28625;SDS011;18905;42.668;23.364;2024-02-26T04:22:58;35.10;;;19.92;;
28625;SDS011;18905;42.668;23.364;2024-02-26T04:25:24;38.47;;;19.58;;
28625;SDS011;18905;42.668;23.364;2024-02-26T04:27:49;46.75;;;20.13;;
28625;SDS011;18905;42.668;23.364;2024-02-26T04:30:14;42.38;;;18.92;;
28625;SDS011;18905;42.668;23.364;2024-02-26T04:32:40;41.05;;;19.08;;
28625;SDS011;18905;42.668;23.364;2024-02-26T04:35:06;37.25;;;19.83;;
28625;SDS011;18905;42.668;23.364;2024-02-26T04:37:31;40.55;;;20.52;;
28625;SDS011;18905;42.668;23.364;2024-02-26T04:40:00;40.60;;;20.73;;
28625;SDS011;18905;42.668;23.364;2024-02-26T04:42:26;39.25;;;20.10;;
28625;SDS011;18905;42.668;23.364;2024-02-26T04:44:52;38.45;;;19.42;;
28625;SDS011;18905;42.668;23.364;2024-02-26T04:47:17;31.83;;;17.30;;
28625;SDS011;18905;42.668;23.364;2024-02-26T04:49:43;43.38;;;18.48;;
28625;SDS011;18905;42.668;23.364;2024-02-26T04:52:08;33.58;;;16.42;;
28625;SDS011;18905;42.668;23.364;2024-02-26T04:54:34;26.08;;;14.80;;
28625;SDS011;18905;42.668;23.364;2024-02-26T04:56:59;40.47;;;17.77;;
28625;SDS011;18905;42.668;23.364;2024-02-26T04:59:25;40.63;;;18.58;;
28625;SDS011;18905;42.668;23.364;2024-02-26T05:01:50;44.60;;;18.90;;
28625;SDS011;18905;42.668;23.364;2024-02-26T05:04:17;40.50;;;19.58;;
28625;SDS011;18905;42.668;23.364;2024-02-26T05:06:43;38.28;;;18.60;;
28625;SDS011;18905;42.668;23.364;2024-02-26T05:09:08;35.17;;;18.20;;
28625;SDS011;18905;42.668;23.364;2024-02-26T05:11:33;34.45;;;17.95;;
28625;SDS011;18905;42.668;23.364;2024-02-26T05:14:00;35.28;;;17.75;;
28625;SDS011;18905;42.668;23.364;2024-02-26T05:16:25;40.08;;;17.55;;
28625;SDS011;18905;42.668;23.364;2024-02-26T05:18:52;37.22;;;17.73;;
28625;SDS011;18905;42.668;23.364;2024-02-26T05:21:17;36.42;;;18.25;;
28625;SDS011;18905;42.668;23.364;2024-02-26T05:23:43;37.20;;;16.48;;
28625;SDS011;18905;42.668;23.364;2024-02-26T05:26:09;35.38;;;17.33;;
28625;SDS011;18905;42.668;23.364;2024-02-26T05:28:34;39.75;;;18.27;;
28625;SDS011;18905;42.668;23.364;2024-02-26T05:31:00;38.95;;;17.08;;
28625;SDS011;18905;42.668;23.364;2024-02-26T05:33:26;37.47;;;16.13;;
28625;SDS011;18905;42.668;23.364;2024-02-26T05:35:51;34.08;;;16.20;;
28625;SDS011;18905;42.668;23.364;2024-02-26T05:38:17;28.85;;;15.57;;
28625;SDS011;18905;42.668;23.364;2024-02-26T05:40:42;32.92;;;15.93;;
28625;SDS011;18905;42.668;23.364;2024-02-26T05:43:08;35.47;;;16.95;;
28625;SDS011;18905;42.668;23.364;2024-02-26T05:45:33;34.47;;;16.52;;
28625;SDS011;18905;42.668;23.364;2024-02-26T05:47:58;32.30;;;16.60;;
28625;SDS011;18905;42.668;23.364;2024-02-26T05:50:24;32.67;;;16.25;;
28625;SDS011;18905;42.668;23.364;2024-02-26T05:52:49;32.78;;;16.83;;
28625;SDS011;18905;42.668;23.364;2024-02-26T05:55:14;31.05;;;16.88;;
28625;SDS011;18905;42.668;23.364;2024-02-26T05:57:40;32.13;;;16.02;;
28625;SDS011;18905;42.668;23.364;2024-02-26T06:00:06;29.75;;;17.75;;
28625;SDS011;18905;42.668;23.364;2024-02-26T06:02:31;29.95;;;16.80;;
28625;SDS011;18905;42.668;23.364;2024-02-26T06:04:57;31.10;;;15.15;;
28625;SDS011;18905;42.668;23.364;2024-02-26T06:07:23;30.40;;;14.48;;
28625;SDS011;18905;42.668;23.364;2024-02-26T06:09:48;33.42;;;16.38;;
28625;SDS011;18905;42.668;23.364;2024-02-26T06:12:13;32.50;;;17.50;;
28625;SDS011;18905;42.668;23.364;2024-02-26T06:14:39;31.70;;;17.02;;
28625;SDS011;18905;42.668;23.364;2024-02-26T06:17:05;29.67;;;15.48;;
28625;SDS011;18905;42.668;23.364;2024-02-26T06:19:30;32.03;;;17.35;;
28625;SDS011;18905;42.668;23.364;2024-02-26T06:21:56;33.22;;;15.25;;
28625;SDS011;18905;42.668;23.364;2024-02-26T06:24:21;32.50;;;16.42;;
28625;SDS011;18905;42.668;23.364;2024-02-26T06:26:47;33.33;;;16.70;;
28625;SDS011;18905;42.668;23.364;2024-02-26T06:29:13;31.42;;;16.02;;
28625;SDS011;18905;42.668;23.364;2024-02-26T06:31:38;45.67;;;20.45;;
28625;SDS011;18905;42.668;23.364;2024-02-26T06:34:03;48.95;;;23.30;;
28625;SDS011;18905;42.668;23.364;2024-02-26T06:36:29;37.72;;;19.88;;
28625;SDS011;18905;42.668;23.364;2024-02-26T06:38:56;35.00;;;16.08;;
28625;SDS011;18905;42.668;23.364;2024-02-26T06:41:22;34.85;;;15.73;;
28625;SDS011;18905;42.668;23.364;2024-02-26T06:43:52;39.10;;;18.40;;
28625;SDS011;18905;42.668;23.364;2024-02-26T06:46:20;40.17;;;17.70;;
28625;SDS011;18905;42.668;23.364;2024-02-26T06:48:47;39.28;;;16.88;;
28625;SDS011;18905;42.668;23.364;2024-02-26T06:51:13;36.33;;;15.82;;
28625;SDS011;18905;42.668;23.364;2024-02-26T06:53:39;27.52;;;16.08;;
28625;SDS011;18905;42.668;23.364;2024-02-26T06:56:04;33.78;;;16.83;;
28625;SDS011;18905;42.668;23.364;2024-02-26T06:58:29;33.72;;;16.15;;
28625;SDS011;18905;42.668;23.364;2024-02-26T07:00:55;30.17;;;16.38;;
28625;SDS011;18905;42.668;23.364;2024-02-26T07:03:20;31.83;;;16.58;;
28625;SDS011;18905;42.668;23.364;2024-02-26T07:05:47;29.27;;;15.77;;
28625;SDS011;18905;42.668;23.364;2024-02-26T07:08:13;32.67;;;16.70;;
28625;SDS011;18905;42.668;23.364;2024-02-26T07:10:38;33.90;;;16.10;;
28625;SDS011;18905;42.668;23.364;2024-02-26T07:13:04;35.58;;;18.02;;
28625;SDS011;18905;42.668;23.364;2024-02-26T07:15:29;34.45;;;16.10;;
28625;SDS011;18905;42.668;23.364;2024-02-26T07:17:54;33.58;;;16.73;;
28625;SDS011;18905;42.668;23.364;2024-02-26T07:20:20;36.00;;;17.90;;
28625;SDS011;18905;42.668;23.364;2024-02-26T07:22:45;35.15;;;17.17;;
28625;SDS011;18905;42.668;23.364;2024-02-26T07:25:11;33.63;;;17.30;;
28625;SDS011;18905;42.668;23.364;2024-02-26T07:27:38;36.50;;;19.42;;
28625;SDS011;18905;42.668;23.364;2024-02-26T07:30:05;40.45;;;17.63;;
28625;SDS011;18905;42.668;23.364;2024-02-26T07:32:31;36.33;;;18.48;;
28625;SDS011;18905;42.668;23.364;2024-02-26T07:34:57;38.35;;;18.67;;
28625;SDS011;18905;42.668;23.364;2024-02-26T07:37:22;35.13;;;17.60;;
28625;SDS011;18905;42.668;23.364;2024-02-26T07:39:47;35.97;;;18.75;;
28625;SDS011;18905;42.668;23.364;2024-02-26T07:42:13;41.92;;;20.45;;
28625;SDS011;18905;42.668;23.364;2024-02-26T07:44:38;36.95;;;18.70;;
28625;SDS011;18905;42.668;23.364;2024-02-26T07:47:07;41.28;;;20.73;;
28625;SDS011;18905;42.668;23.364;2024-02-26T07:49:34;38.40;;;19.15;;
28625;SDS011;18905;42.668;23.364;2024-02-26T07:51:59;41.38;;;21.10;;
28625;SDS011;18905;42.668;23.364;2024-02-26T07:54:24;42.65;;;21.67;;
28625;SDS011;18905;42.668;23.364;2024-02-26T07:56:50;48.92;;;22.90;;
28625;SDS011;18905;42.668;23.364;2024-02-26T07:59:15;45.42;;;20.77;;
28625;SDS011;18905;42.668;23.364;2024-02-26T08:01:41;46.97;;;24.90;;
28625;SDS011;18905;42.668;23.364;2024-02-26T08:04:06;57.97;;;26.88;;
28625;SDS011;18905;42.668;23.364;2024-02-26T08:06:32;56.03;;;30.45;;
28625;SDS011;18905;42.668;23.364;2024-02-26T08:08:57;54.60;;;26.60;;
28625;SDS011;18905;42.668;23.364;2024-02-26T08:11:23;37.90;;;21.48;;
28625;SDS011;18905;42.668;23.364;2024-02-26T08:13:48;40.67;;;20.15;;
28625;SDS011;18905;42.668;23.364;2024-02-26T08:16:13;42.25;;;22.35;;
28625;SDS011;18905;42.668;23.364;2024-02-26T08:18:39;39.47;;;19.90;;
28625;SDS011;18905;42.668;23.364;2024-02-26T08:21:05;35.28;;;17.67;;
28625;SDS011;18905;42.668;23.364;2024-02-26T08:23:30;33.65;;;18.23;;
28625;SDS011;18905;42.668;23.364;2024-02-26T08:25:56;36.03;;;19.05;;
28625;SDS011;18905;42.668;23.364;2024-02-26T08:28:23;35.28;;;18.05;;
28625;SDS011;18905;42.668;23.364;2024-02-26T08:30:49;32.80;;;17.52;;
28625;SDS011;18905;42.668;23.364;2024-02-26T08:33:15;37.63;;;15.32;;
28625;SDS011;18905;42.668;23.364;2024-02-26T08:35:40;22.30;;;12.82;;
28625;SDS011;18905;42.668;23.364;2024-02-26T08:38:06;21.70;;;9.68;;
28625;SDS011;18905;42.668;23.364;2024-02-26T08:40:31;15.73;;;9.85;;
28625;SDS011;18905;42.668;23.364;2024-02-26T08:42:56;16.55;;;8.82;;
28625;SDS011;18905;42.668;23.364;2024-02-26T08:45:22;21.05;;;9.98;;
28625;SDS011;18905;42.668;23.364;2024-02-26T08:47:48;29.80;;;12.13;;
28625;SDS011;18905;42.668;23.364;2024-02-26T08:50:13;20.77;;;11.68;;
28625;SDS011;18905;42.668;23.364;2024-02-26T08:52:39;17.58;;;9.57;;
28625;SDS011;18905;42.668;23.364;2024-02-26T08:55:05;19.20;;;10.15;;
28625;SDS011;18905;42.668;23.364;2024-02-26T08:57:33;16.88;;;8.48;;
28625;SDS011;18905;42.668;23.364;2024-02-26T08:59:59;15.13;;;8.52;;
28625;SDS011;18905;42.668;23.364;2024-02-26T09:02:25;15.45;;;7.93;;
28625;SDS011;18905;42.668;23.364;2024-02-26T09:04:51;16.23;;;7.05;;
28625;SDS011;18905;42.668;23.364;2024-02-26T09:07:18;14.75;;;8.30;;
28625;SDS011;18905;42.668;23.364;2024-02-26T09:09:44;12.82;;;6.88;;
28625;SDS011;18905;42.668;23.364;2024-02-26T09:12:09;10.18;;;4.88;;
28625;SDS011;18905;42.668;23.364;2024-02-26T09:14:34;8.20;;;5.28;;
28625;SDS011;18905;42.668;23.364;2024-02-26T09:17:00;14.05;;;5.53;;
28625;SDS011;18905;42.668;23.364;2024-02-26T09:19:25;11.13;;;6.35;;
28625;SDS011;18905;42.668;23.364;2024-02-26T09:21:52;6.47;;;4.70;;
28625;SDS011;18905;42.668;23.364;2024-02-26T09:24:22;8.35;;;5.03;;
28625;SDS011;18905;42.668;23.364;2024-02-26T09:26:48;6.97;;;5.07;;
28625;SDS011;18905;42.668;23.364;2024-02-26T09:29:13;10.65;;;4.50;;
28625;SDS011;18905;42.668;23.364;2024-02-26T09:31:38;7.88;;;4.88;;
28625;SDS011;18905;42.668;23.364;2024-02-26T09:34:06;10.15;;;5.65;;
28625;SDS011;18905;42.668;23.364;2024-02-26T09:36:32;7.45;;;5.38;;
28625;SDS011;18905;42.668;23.364;2024-02-26T09:38:58;11.50;;;5.72;;
28625;SDS011;18905;42.668;23.364;2024-02-26T09:41:23;8.75;;;5.00;;
28625;SDS011;18905;42.668;23.364;2024-02-26T09:43:52;6.20;;;4.75;;
28625;SDS011;18905;42.668;23.364;2024-02-26T09:46:21;9.82;;;4.88;;
28625;SDS011;18905;42.668;23.364;2024-02-26T09:48:47;8.05;;;4.85;;
28625;SDS011;18905;42.668;23.364;2024-02-26T09:51:13;9.68;;;4.95;;
28625;SDS011;18905;42.668;23.364;2024-02-26T09:53:39;6.25;;;4.75;;
28625;SDS011;18905;42.668;23.364;2024-02-26T09:56:09;5.97;;;4.53;;
28625;SDS011;18905;42.668;23.364;2024-02-26T09:58:37;7.85;;;4.78;;
28625;SDS011;18905;42.668;23.364;2024-02-26T10:01:04;7.47;;;4.80;;
28625;SDS011;18905;42.668;23.364;2024-02-26T10:03:39;4.55;;;4.13;;
28625;SDS011;18905;42.668;23.364;2024-02-26T10:06:09;5.07;;;4.57;;
28625;SDS011;18905;42.668;23.364;2024-02-26T10:08:35;7.70;;;5.18;;
28625;SDS011;18905;42.668;23.364;2024-02-26T10:11:02;4.93;;;4.28;;
28625;SDS011;18905;42.668;23.364;2024-02-26T10:13:28;6.60;;;4.18;;
28625;SDS011;18905;42.668;23.364;2024-02-26T10:15:53;6.68;;;4.97;;
28625;SDS011;18905;42.668;23.364;2024-02-26T10:18:18;4.93;;;4.32;;
28625;SDS011;18905;42.668;23.364;2024-02-26T10:21:03;4.88;;;4.40;;
28625;SDS011;18905;42.668;23.364;2024-02-26T10:23:28;4.72;;;4.28;;
28625;SDS011;18905;42.668;23.364;2024-02-26T10:25:54;4.90;;;4.28;;
28625;SDS011;18905;42.668;23.364;2024-02-26T10:28:20;8.73;;;5.30;;
28625;SDS011;18905;42.668;23.364;2024-02-26T10:30:46;7.10;;;5.13;;
28625;SDS011;18905;42.668;23.364;2024-02-26T10:33:12;6.10;;;4.38;;
28625;SDS011;18905;42.668;23.364;2024-02-26T10:35:39;6.30;;;4.07;;
28625;SDS011;18905;42.668;23.364;2024-02-26T10:38:06;4.15;;;3.75;;
28625;SDS011;18905;42.668;23.364;2024-02-26T10:40:32;7.15;;;4.10;;
28625;SDS011;18905;42.668;23.364;2024-02-26T10:42:58;7.40;;;4.72;;
28625;SDS011;18905;42.668;23.364;2024-02-26T10:45:23;5.97;;;5.15;;
28625;SDS011;18905;42.668;23.364;2024-02-26T10:47:49;7.78;;;4.70;;
28625;SDS011;18905;42.668;23.364;2024-02-26T10:50:15;6.80;;;4.47;;
28625;SDS011;18905;42.668;23.364;2024-02-26T10:52:42;9.88;;;4.30;;
28625;SDS011;18905;42.668;23.364;2024-02-26T10:55:08;4.63;;;4.22;;
28625;SDS011;18905;42.668;23.364;2024-02-26T10:57:40;6.55;;;4.78;;
28625;SDS011;18905;42.668;23.364;2024-02-26T11:00:08;5.13;;;4.72;;
28625;SDS011;18905;42.668;23.364;2024-02-26T11:02:37;7.00;;;4.50;;
28625;SDS011;18905;42.668;23.364;2024-02-26T11:05:05;5.05;;;4.13;;
28625;SDS011;18905;42.668;23.364;2024-02-26T11:07:31;6.72;;;3.88;;
28625;SDS011;18905;42.668;23.364;2024-02-26T11:09:59;8.93;;;5.05;;
28625;SDS011;18905;42.668;23.364;2024-02-26T11:12:25;7.95;;;3.95;;
28625;SDS011;18905;42.668;23.364;2024-02-26T11:14:53;5.40;;;3.60;;
28625;SDS011;18905;42.668;23.364;2024-02-26T11:17:20;3.47;;;3.13;;
28625;SDS011;18905;42.668;23.364;2024-02-26T11:19:47;5.90;;;4.03;;
28625;SDS011;18905;42.668;23.364;2024-02-26T11:22:15;6.43;;;4.25;;
28625;SDS011;18905;42.668;23.364;2024-02-26T11:24:40;5.78;;;4.53;;
28625;SDS011;18905;42.668;23.364;2024-02-26T11:27:07;5.30;;;4.80;;
28625;SDS011;18905;42.668;23.364;2024-02-26T11:29:42;5.15;;;4.53;;
28625;SDS011;18905;42.668;23.364;2024-02-26T11:32:10;5.25;;;4.45;;
28625;SDS011;18905;42.668;23.364;2024-02-26T11:34:36;6.07;;;4.47;;
28625;SDS011;18905;42.668;23.364;2024-02-26T11:37:11;5.57;;;3.75;;
28625;SDS011;18905;42.668;23.364;2024-02-26T11:39:41;6.10;;;4.00;;
28625;SDS011;18905;42.668;23.364;2024-02-26T11:42:07;5.70;;;4.22;;
28625;SDS011;18905;42.668;23.364;2024-02-26T11:44:34;5.13;;;4.32;;
28625;SDS011;18905;42.668;23.364;2024-02-26T11:47:09;4.40;;;4.00;;
28625;SDS011;18905;42.668;23.364;2024-02-26T11:49:35;4.57;;;3.85;;
28625;SDS011;18905;42.668;23.364;2024-02-26T11:52:00;3.47;;;3.17;;
28625;SDS011;18905;42.668;23.364;2024-02-26T11:59:55;5.20;;;4.40;;
28625;SDS011;18905;42.668;23.364;2024-02-26T12:02:38;4.97;;;3.42;;
28625;SDS011;18905;42.668;23.364;2024-02-26T12:05:17;5.13;;;3.38;;
28625;SDS011;18905;42.668;23.364;2024-02-26T12:07:55;4.07;;;3.42;;
28625;SDS011;18905;42.668;23.364;2024-02-26T12:10:28;5.32;;;3.03;;
28625;SDS011;18905;42.668;23.364;2024-02-26T12:12:59;4.10;;;3.47;;
28625;SDS011;18905;42.668;23.364;2024-02-26T12:15:30;4.13;;;3.58;;
28625;SDS011;18905;42.668;23.364;2024-02-26T12:17:58;4.47;;;3.47;;
28625;SDS011;18905;42.668;23.364;2024-02-26T12:20:25;6.50;;;3.75;;
28625;SDS011;18905;42.668;23.364;2024-02-26T12:22:50;6.13;;;3.60;;
28625;SDS011;18905;42.668;23.364;2024-02-26T12:25:18;4.28;;;3.17;;
28625;SDS011;18905;42.668;23.364;2024-02-26T12:27:46;5.60;;;3.25;;
28625;SDS011;18905;42.668;23.364;2024-02-26T12:30:11;4.55;;;3.28;;
28625;SDS011;18905;42.668;23.364;2024-02-26T12:32:37;3.28;;;2.95;;
28625;SDS011;18905;42.668;23.364;2024-02-26T12:35:03;4.18;;;2.97;;
28625;SDS011;18905;42.668;23.364;2024-02-26T12:37:30;4.13;;;3.38;;
28625;SDS011;18905;42.668;23.364;2024-02-26T12:39:55;4.78;;;3.85;;
28625;SDS011;18905;42.668;23.364;2024-02-26T12:42:21;5.45;;;3.65;;
28625;SDS011;18905;42.668;23.364;2024-02-26T12:44:46;3.63;;;3.30;;
28625;SDS011;18905;42.668;23.364;2024-02-26T12:47:12;3.70;;;3.40;;
28625;SDS011;18905;42.668;23.364;2024-02-26T12:49:42;4.97;;;3.20;;
28625;SDS011;18905;42.668;23.364;2024-02-26T12:52:09;5.43;;;3.35;;
28625;SDS011;18905;42.668;23.364;2024-02-26T12:54:35;3.63;;;3.30;;
28625;SDS011;18905;42.668;23.364;2024-02-26T12:57:04;3.42;;;3.13;;
28625;SDS011;18905;42.668;23.364;2024-02-26T12:59:31;5.22;;;3.45;;
28625;SDS011;18905;42.668;23.364;2024-02-26T13:01:58;4.50;;;3.67;;
28625;SDS011;18905;42.668;23.364;2024-02-26T13:04:25;5.10;;;3.30;;
28625;SDS011;18905;42.668;23.364;2024-02-26T13:06:52;5.00;;;3.60;;
28625;SDS011;18905;42.668;23.364;2024-02-26T13:09:18;4.88;;;3.28;;
28625;SDS011;18905;42.668;23.364;2024-02-26T13:11:44;3.67;;;3.38;;
28625;SDS011;18905;42.668;23.364;2024-02-26T13:14:19;5.70;;;3.88;;
28625;SDS011;18905;42.668;23.364;2024-02-26T13:16:53;4.53;;;3.08;;
28625;SDS011;18905;42.668;23.364;2024-02-26T13:19:20;3.53;;;2.83;;
28625;SDS011;18905;42.668;23.364;2024-02-26T13:21:46;3.53;;;3.10;;
28625;SDS011;18905;42.668;23.364;2024-02-26T13:24:12;5.43;;;3.60;;
28625;SDS011;18905;42.668;23.364;2024-02-26T13:26:38;3.33;;;3.03;;
28625;SDS011;18905;42.668;23.364;2024-02-26T13:29:03;9.48;;;2.78;;
28625;SDS011;18905;42.668;23.364;2024-02-26T13:31:29;4.55;;;3.08;;
28625;SDS011;18905;42.668;23.364;2024-02-26T13:33:55;3.35;;;3.05;;
28625;SDS011;18905;42.668;23.364;2024-02-26T13:36:21;3.28;;;2.83;;
28625;SDS011;18905;42.668;23.364;2024-02-26T13:38:54;3.28;;;2.97;;
28625;SDS011;18905;42.668;23.364;2024-02-26T13:41:20;2.67;;;2.45;;
28625;SDS011;18905;42.668;23.364;2024-02-26T13:43:46;5.35;;;3.50;;
28625;SDS011;18905;42.668;23.364;2024-02-26T13:46:12;4.40;;;2.72;;
28625;SDS011;18905;42.668;23.364;2024-02-26T13:48:40;4.95;;;3.13;;
28625;SDS011;18905;42.668;23.364;2024-02-26T13:51:06;3.70;;;3.25;;
28625;SDS011;18905;42.668;23.364;2024-02-26T13:53:31;4.13;;;3.10;;
28625;SDS011;18905;42.668;23.364;2024-02-26T13:55:57;3.78;;;2.95;;
28625;SDS011;18905;42.668;23.364;2024-02-26T13:58:23;3.47;;;3.15;;
28625;SDS011;18905;42.668;23.364;2024-02-26T14:00:50;5.22;;;3.55;;
28625;SDS011;18905;42.668;23.364;2024-02-26T14:03:15;3.45;;;2.95;;
28625;SDS011;18905;42.668;23.364;2024-02-26T14:05:41;4.75;;;2.75;;
28625;SDS011;18905;42.668;23.364;2024-02-26T14:08:07;8.45;;;2.92;;
28625;SDS011;18905;42.668;23.364;2024-02-26T14:10:32;4.72;;;3.38;;
28625;SDS011;18905;42.668;23.364;2024-02-26T14:12:58;3.95;;;3.08;;
28625;SDS011;18905;42.668;23.364;2024-02-26T14:15:24;4.95;;;2.92;;
28625;SDS011;18905;42.668;23.364;2024-02-26T14:17:50;8.25;;;2.72;;
28625;SDS011;18905;42.668;23.364;2024-02-26T14:20:22;15.43;;;3.90;;